Time;durP1;ratioP1;P1;durP2;ratioP2;P2;SDS_P1;SDS_P2;PMS_P1;PMS_P2;Temp;Humidity;BMP_temperature;BMP_pressure;BME280_temperature;BME280_humidity;BME280_pressure;Samples;Min_cycle;Max_cycle;Signal;HPM_P1;HPM_P2
2022/01/01 00:00:48;;;;;;;0.40;0.30;;;;;;;12.21;100.00;101197.56;5073554;28;20453;-72
2022/01/01 00:03:16;;;;;;;0.97;0.97;;;;;;;12.23;100.00;101197.31;5073091;28;20449;-71
2022/01/01 00:05:42;;;;;;;3.90;3.50;;;;;;;12.18;100.00;101197.38;5061025;28;20469;-71
2022/01/01 00:08:11;;;;;;;0.40;0.30;;;;;;;12.15;100.00;101204.22;5053996;28;20438;-71
2022/01/01 00:10:37;;;;;;;0.40;0.30;;;;;;;12.16;100.00;101211.25;5071429;28;20481;-72
2022/01/01 00:13:04;;;;;;;0.40;0.23;;;;;;;12.18;100.00;101217.19;5073117;28;20469;-69
2022/01/01 00:15:30;;;;;;;0.40;0.30;;;;;;;12.21;100.00;101213.06;5072756;28;20525;-71
2022/01/01 00:17:57;;;;;;;0.40;0.20;;;;;;;12.19;100.00;101209.84;5073246;28;20456;-72
2022/01/01 00:20:25;;;;;;;0.40;0.30;;;;;;;12.22;100.00;101218.22;5072495;28;21007;-72
2022/01/01 00:22:52;;;;;;;0.40;0.30;;;;;;;12.25;100.00;101219.53;5073374;28;20470;-72
2022/01/01 00:25:18;;;;;;;0.40;0.23;;;;;;;12.24;100.00;101218.72;5073099;28;20499;-71
2022/01/01 00:27:45;;;;;;;2.30;2.20;;;;;;;12.26;100.00;101211.09;5072814;28;20543;-72
2022/01/01 00:30:12;;;;;;;0.40;0.20;;;;;;;12.24;100.00;101224.16;5072501;28;20445;-72
2022/01/01 00:32:39;;;;;;;2.83;2.63;;;;;;;12.29;100.00;101234.94;5072590;28;20998;-72
2022/01/01 00:35:06;;;;;;;0.40;0.30;;;;;;;12.31;100.00;101237.38;5072938;28;20433;-72
2022/01/01 00:37:34;;;;;;;0.40;0.20;;;;;;;12.34;100.00;101234.84;5072599;28;20950;-72
2022/01/01 00:40:01;;;;;;;0.40;0.20;;;;;;;12.33;100.00;101246.81;5072931;28;20525;-72
2022/01/01 00:42:27;;;;;;;0.40;0.30;;;;;;;12.34;100.00;101250.34;5072695;28;20470;-72
2022/01/01 00:44:54;;;;;;;0.40;0.30;;;;;;;12.35;100.00;101247.34;5073257;28;20452;-72
2022/01/01 00:47:21;;;;;;;0.40;0.20;;;;;;;12.33;100.00;101259.59;5072685;28;20445;-72
2022/01/01 00:49:47;;;;;;;0.40;0.40;;;;;;;12.31;100.00;101261.81;5072497;28;20959;-72
2022/01/01 00:52:13;;;;;;;0.40;0.30;;;;;;;12.30;100.00;101263.72;5072748;28;20485;-71
2022/01/01 00:54:41;;;;;;;0.40;0.30;;;;;;;12.33;100.00;101260.41;5073133;28;20499;-73
2022/01/01 00:57:08;;;;;;;0.40;0.30;;;;;;;12.37;100.00;101279.66;5069574;28;20445;-72
2022/01/01 00:59:34;;;;;;;0.40;0.20;;;;;;;12.34;100.00;101272.88;5071619;28;20448;-74
2022/01/01 01:02:01;;;;;;;0.40;0.30;;;;;;;12.38;100.00;101279.34;5071005;28;20464;-75
2022/01/01 01:04:28;;;;;;;0.40;0.30;;;;;;;12.37;100.00;101285.88;5072347;28;20441;-75
2022/01/01 01:06:54;;;;;;;0.40;0.30;;;;;;;12.37;100.00;101283.16;5070538;28;20441;-76
2022/01/01 01:09:20;;;;;;;0.40;0.30;;;;;;;12.33;100.00;101290.28;5063900;28;20453;-75
2022/01/01 01:11:51;;;;;;;0.77;0.77;;;;;;;12.36;100.00;101287.00;5052695;28;20485;-74
2022/01/01 01:14:23;;;;;;;0.50;0.30;;;;;;;12.37;100.00;101288.59;5067627;28;20532;-74
2022/01/01 01:16:52;;;;;;;0.40;0.30;;;;;;;12.33;100.00;101298.44;5071571;28;20552;-75
2022/01/01 01:19:19;;;;;;;0.40;0.23;;;;;;;12.33;100.00;101297.63;5071242;28;20554;-75
2022/01/01 01:21:46;;;;;;;0.40;0.30;;;;;;;12.29;100.00;101302.84;5072278;28;20786;-75
2022/01/01 01:24:13;;;;;;;0.40;0.30;;;;;;;12.28;100.00;101308.59;5072345;28;20979;-75
2022/01/01 01:26:46;;;;;;;0.40;0.30;;;;;;;12.30;100.00;101325.38;5071497;28;20548;-74
2022/01/01 01:29:14;;;;;;;0.40;0.30;;;;;;;12.28;100.00;101327.59;5072643;28;20430;-75
2022/01/01 01:31:40;;;;;;;0.40;0.30;;;;;;;12.27;100.00;101318.66;5071625;28;20856;-72
2022/01/01 01:34:07;;;;;;;0.40;0.23;;;;;;;12.28;100.00;101327.59;5071704;28;21023;-72
2022/01/01 01:36:33;;;;;;;0.40;0.20;;;;;;;12.25;100.00;101325.47;5071873;28;20452;-72
2022/01/01 01:38:59;;;;;;;0.40;0.20;;;;;;;12.27;100.00;101336.84;5072749;28;20831;-73
2022/01/01 01:41:29;;;;;;;0.40;0.30;;;;;;;12.25;100.00;101339.84;5075831;28;20859;-73
2022/01/01 01:43:57;;;;;;;0.40;0.30;;;;;;;12.25;100.00;101341.75;5076372;28;20475;-74
2022/01/01 01:46:26;;;;;;;0.50;0.30;;;;;;;12.19;100.00;101338.31;5076216;28;20445;-73
2022/01/01 01:48:53;;;;;;;1.57;1.47;;;;;;;12.21;100.00;101348.88;5076354;28;20449;-74
2022/01/01 01:51:20;;;;;;;0.40;0.20;;;;;;;12.21;100.00;101344.25;5075898;28;20485;-73
2022/01/01 01:53:46;;;;;;;0.40;0.30;;;;;;;12.23;100.00;101344.78;5076158;28;20449;-73
2022/01/01 01:56:13;;;;;;;0.40;0.30;;;;;;;12.21;100.00;101344.25;5075880;28;20452;-73
2022/01/01 01:58:40;;;;;;;0.40;0.30;;;;;;;12.20;100.00;101348.06;5076238;28;20454;-73
2022/01/01 02:01:20;;;;;;;0.40;0.30;;;;;;;12.17;100.00;101354.09;5075859;28;20437;-74
2022/01/01 02:03:49;;;;;;;0.40;0.30;;;;;;;12.18;100.00;101353.00;5075792;28;20515;-73
2022/01/01 02:06:18;;;;;;;0.40;0.30;;;;;;;12.20;100.00;101355.41;5075753;28;20465;-73
2022/01/01 02:08:45;;;;;;;0.40;0.30;;;;;;;12.19;100.00;101361.97;5075250;28;21015;-73
2022/01/01 02:11:12;;;;;;;0.40;0.30;;;;;;;12.18;100.00;101369.31;5075910;28;20484;-73
2022/01/01 02:13:59;;;;;;;0.40;0.20;;;;;;;12.21;100.00;101367.88;5075566;28;20469;-73
2022/01/01 02:16:36;;;;;;;0.40;0.30;;;;;;;12.20;100.00;101369.81;5075898;28;20532;-74
2022/01/01 02:19:04;;;;;;;0.40;0.30;;;;;;;12.18;100.00;101366.59;5075318;28;20794;-73
2022/01/01 02:21:32;;;;;;;0.40;0.30;;;;;;;12.19;100.00;101370.91;5076031;28;20437;-73
2022/01/01 02:23:59;;;;;;;0.40;0.30;;;;;;;12.16;100.00;101365.25;5075113;28;21005;-73
2022/01/01 02:26:33;;;;;;;0.40;0.30;;;;;;;12.20;100.00;101372.53;5075413;28;20986;-73
2022/01/01 02:29:00;;;;;;;0.50;0.43;;;;;;;12.19;100.00;101379.06;5075667;28;20450;-73
2022/01/01 02:31:27;;;;;;;1.07;1.07;;;;;;;12.13;100.00;101380.22;5075277;28;20484;-73
2022/01/01 02:33:54;;;;;;;0.40;0.30;;;;;;;12.18;100.00;101377.44;5074768;28;20484;-73
2022/01/01 02:36:32;;;;;;;0.40;0.30;;;;;;;12.17;100.00;101386.66;5075487;28;20437;-74
2022/01/01 02:38:59;;;;;;;0.40;0.20;;;;;;;12.16;100.00;101384.25;5075515;28;20448;-74
2022/01/01 02:41:26;;;;;;;0.40;0.30;;;;;;;12.16;100.00;101384.25;5074761;28;20442;-74
2022/01/01 02:43:54;;;;;;;0.40;0.20;;;;;;;12.16;100.00;101371.47;5072063;28;20496;-73
2022/01/01 02:46:20;;;;;;;0.50;0.40;;;;;;;12.18;100.00;101377.44;5074348;28;20985;-74
2022/01/01 02:48:46;;;;;;;0.40;0.27;;;;;;;12.12;100.00;101387.53;5075108;28;20442;-73
2022/01/01 02:51:13;;;;;;;0.40;0.20;;;;;;;12.14;100.00;101387.28;5074386;28;20453;-74
2022/01/01 02:53:43;;;;;;;0.40;0.20;;;;;;;12.12;100.00;101390.25;5074536;28;20461;-74
2022/01/01 02:56:10;;;;;;;0.40;0.27;;;;;;;12.12;100.00;101387.53;5073832;28;20505;-74
2022/01/01 02:58:36;;;;;;;0.40;0.20;;;;;;;12.12;100.00;101389.47;5075066;28;20446;-74
2022/01/01 03:01:03;;;;;;;2.27;2.10;;;;;;;12.12;100.00;101384.84;5074920;28;20441;-74
2022/01/01 03:03:29;;;;;;;0.40;0.20;;;;;;;12.14;100.00;101390.00;5074917;28;20469;-74
2022/01/01 03:05:56;;;;;;;0.40;0.20;;;;;;;12.07;100.00;101393.06;5074092;28;20457;-74
2022/01/01 03:08:22;;;;;;;0.40;0.20;;;;;;;12.10;100.00;101400.63;5074875;28;20449;-74
2022/01/01 03:10:50;;;;;;;0.70;0.70;;;;;;;12.08;100.00;101397.38;5074590;28;20446;-74
2022/01/01 03:13:16;;;;;;;0.40;0.20;;;;;;;12.11;100.00;101409.56;5074573;28;20499;-75
2022/01/01 03:15:43;;;;;;;0.40;0.30;;;;;;;12.11;100.00;101404.16;5074328;28;20445;-74
2022/01/01 03:18:10;;;;;;;0.40;0.30;;;;;;;12.12;100.00;101413.91;5074677;28;20536;-74
2022/01/01 03:20:36;;;;;;;0.40;0.30;;;;;;;12.11;100.00;101413.09;5075741;28;20448;-75
2022/01/01 03:23:04;;;;;;;0.40;0.30;;;;;;;12.14;100.00;101414.44;5074214;28;20460;-75
2022/01/01 03:25:30;;;;;;;0.40;0.30;;;;;;;12.12;100.00;101412.00;5074209;28;20953;-72
2022/01/01 03:27:58;;;;;;;0.40;0.30;;;;;;;12.15;100.00;101417.97;5074249;28;20495;-73
2022/01/01 03:30:24;;;;;;;0.40;0.30;;;;;;;12.09;100.00;101420.75;5074429;28;20449;-72
2022/01/01 03:32:51;;;;;;;0.40;0.30;;;;;;;12.09;100.00;101415.31;5073693;28;20499;-73
2022/01/01 03:35:17;;;;;;;0.40;0.20;;;;;;;12.10;100.00;101419.63;5074013;28;20996;-75
2022/01/01 03:37:43;;;;;;;0.40;0.20;;;;;;;12.12;100.00;101427.47;5073778;28;20452;-75
2022/01/01 03:40:11;;;;;;;0.40;0.30;;;;;;;12.10;100.00;101419.63;5074215;28;20437;-75
2022/01/01 03:42:37;;;;;;;0.40;0.20;;;;;;;12.11;100.00;101420.44;5073861;28;20473;-74
2022/01/01 03:45:07;;;;;;;1.13;1.13;;;;;;;12.12;100.00;101424.75;5074370;28;20441;-74
2022/01/01 03:47:34;;;;;;;0.40;0.30;;;;;;;12.15;100.00;101426.09;5073789;28;20440;-74
2022/01/01 03:50:00;;;;;;;0.40;0.30;;;;;;;12.11;100.00;101415.81;5073828;28;20448;-74
2022/01/01 03:52:27;;;;;;;0.40;0.30;;;;;;;12.12;100.00;101416.63;5073061;28;21063;-75
2022/01/01 03:54:53;;;;;;;0.40;0.30;;;;;;;12.11;100.00;101420.44;5073968;28;20441;-75
2022/01/01 03:57:20;;;;;;;1.03;0.93;;;;;;;12.10;100.00;101418.81;5073309;28;20958;-74
2022/01/01 03:59:47;;;;;;;0.40;0.30;;;;;;;12.02;100.00;101417.56;5073630;28;20465;-75
2022/01/01 04:02:15;;;;;;;0.40;0.20;;;;;;;12.06;100.00;101423.22;5072664;28;20465;-74
2022/01/01 04:04:41;;;;;;;0.40;0.30;;;;;;;12.11;100.00;101420.44;5073477;28;20477;-75
2022/01/01 04:07:09;;;;;;;0.40;0.30;;;;;;;12.13;100.00;101434.56;5073716;28;20449;-75
2022/01/01 04:09:35;;;;;;;0.40;0.20;;;;;;;12.16;100.00;101442.09;5073030;28;20954;-75
2022/01/01 04:12:02;;;;;;;0.40;0.20;;;;;;;12.18;100.00;101442.63;5072918;28;21024;-74
2022/01/01 04:14:29;;;;;;;0.40;0.30;;;;;;;12.16;100.00;101452.97;5073362;28;20449;-75
2022/01/01 04:16:55;;;;;;;0.40;0.30;;;;;;;12.18;100.00;101453.50;5072995;28;20449;-75
2022/01/01 04:19:31;;;;;;;0.40;0.20;;;;;;;12.20;100.00;101451.28;5073497;28;20437;-75
2022/01/01 04:21:58;;;;;;;0.40;0.27;;;;;;;12.21;100.00;101457.53;5073196;28;20444;-75
2022/01/01 04:24:24;;;;;;;0.80;0.80;;;;;;;12.19;100.00;101471.41;5073180;28;20844;-76
2022/01/01 04:26:50;;;;;;;0.40;0.30;;;;;;;12.20;100.00;101467.59;5073254;28;20445;-74
2022/01/01 04:29:17;;;;;;;0.40;0.30;;;;;;;12.21;100.00;101463.75;5073448;28;20449;-75
2022/01/01 04:31:43;;;;;;;0.40;0.20;;;;;;;12.25;100.00;101474.88;5072992;28;20826;-74
2022/01/01 04:34:10;;;;;;;0.40;0.30;;;;;;;12.25;100.00;101459.38;5073276;28;20838;-74
2022/01/01 04:36:47;;;;;;;2.50;1.37;;;;;;;12.22;100.00;101465.41;5073021;28;20433;-74
2022/01/01 04:39:13;;;;;;;0.70;0.70;;;;;;;12.26;100.00;101457.47;5073081;28;20458;-74
2022/01/01 04:41:41;;;;;;;0.40;0.30;;;;;;;12.23;100.00;101460.78;5072794;28;20445;-75
2022/01/01 04:44:08;;;;;;;0.40;0.30;;;;;;;12.19;100.00;101462.44;5072645;28;20556;-75
2022/01/01 04:46:34;;;;;;;0.40;0.30;;;;;;;12.19;100.00;101465.97;5073230;28;20449;-73
2022/01/01 04:49:01;;;;;;;0.40;0.27;;;;;;;12.24;100.00;101474.06;5072964;28;20449;-74
2022/01/01 04:51:28;;;;;;;0.40;0.30;;;;;;;12.24;100.00;101478.69;5073209;28;20441;-74
2022/01/01 04:53:59;;;;;;;0.40;0.30;;;;;;;12.16;100.00;101471.97;5072711;28;20538;-73
2022/01/01 04:56:28;;;;;;;0.40;0.20;;;;;;;12.19;100.00;101465.16;5072491;28;20812;-74
2022/01/01 04:58:54;;;;;;;0.40;0.20;;;;;;;12.21;100.00;101471.09;5072909;28;20449;-75
2022/01/01 05:01:21;;;;;;;0.40;0.20;;;;;;;12.18;100.00;101463.56;5072786;28;20449;-74
2022/01/01 05:03:48;;;;;;;0.40;0.20;;;;;;;12.19;100.00;101476.84;5072664;28;20485;-74
2022/01/01 05:06:14;;;;;;;0.40;0.20;;;;;;;12.20;100.00;101472.22;5073340;28;20445;-73
2022/01/01 05:08:41;;;;;;;0.40;0.30;;;;;;;12.18;100.00;101464.38;5072746;28;20441;-74
2022/01/01 05:11:09;;;;;;;0.40;0.30;;;;;;;12.21;100.00;101479.25;5072477;28;20441;-73
2022/01/01 05:13:35;;;;;;;0.40;0.30;;;;;;;12.19;100.00;101473.31;5074087;28;20564;-74
2022/01/01 05:16:01;;;;;;;0.40;0.30;;;;;;;12.15;100.00;101480.41;5077051;28;20437;-75
2022/01/01 05:18:28;;;;;;;0.40;0.30;;;;;;;12.16;100.00;101476.59;5076729;28;20862;-75
2022/01/01 05:20:55;;;;;;;0.40;0.30;;;;;;;12.17;100.00;101498.03;5076904;28;20468;-75
2022/01/01 05:23:21;;;;;;;0.97;0.97;;;;;;;12.19;100.00;101487.69;5076211;28;20983;-75
2022/01/01 05:25:47;;;;;;;0.40;0.20;;;;;;;12.22;100.00;101487.13;5076607;28;20453;-75
2022/01/01 05:28:15;;;;;;;0.40;0.30;;;;;;;12.18;100.00;101496.16;5076160;28;20934;-76
2022/01/01 05:30:42;;;;;;;0.40;0.20;;;;;;;12.19;100.00;101503.19;5076723;28;20443;-75
2022/01/01 05:33:08;;;;;;;0.40;0.20;;;;;;;12.20;100.00;101505.59;5075941;28;20494;-75
2022/01/01 05:35:34;;;;;;;0.40;0.20;;;;;;;12.20;100.00;101504.81;5076670;28;20863;-75
2022/01/01 05:38:01;;;;;;;0.40;0.30;;;;;;;12.23;100.00;101510.47;5076299;28;20445;-75
2022/01/01 05:40:27;;;;;;;0.40;0.20;;;;;;;12.24;100.00;101503.94;5076542;28;20442;-75
2022/01/01 05:42:54;;;;;;;0.50;0.40;;;;;;;12.16;100.00;101507.28;5076021;28;20470;-75
2022/01/01 05:45:21;;;;;;;0.40;0.30;;;;;;;12.21;100.00;101506.41;5075872;28;20449;-75
2022/01/01 05:47:48;;;;;;;0.40;0.30;;;;;;;12.21;100.00;101515.38;5076110;28;20441;-74
2022/01/01 05:50:14;;;;;;;0.50;0.50;;;;;;;12.24;100.00;101528.38;5076345;28;20445;-75
2022/01/01 05:52:41;;;;;;;0.40;0.27;;;;;;;12.25;100.00;101524.56;5075825;28;20495;-76
2022/01/01 05:55:08;;;;;;;0.40;0.20;;;;;;;12.25;100.00;101524.56;5076251;28;20453;-75
2022/01/01 05:57:34;;;;;;;0.40;0.30;;;;;;;12.27;100.00;101535.16;5075994;28;20445;-75
2022/01/01 06:00:01;;;;;;;0.40;0.30;;;;;;;12.29;100.00;101533.75;5075450;28;20445;-75
2022/01/01 06:02:29;;;;;;;0.40;0.20;;;;;;;12.28;100.00;101529.44;5076060;28;20461;-75
2022/01/01 06:04:55;;;;;;;0.40;0.20;;;;;;;12.28;100.00;101531.34;5075796;28;20446;-74
2022/01/01 06:07:22;;;;;;;0.40;0.30;;;;;;;12.31;100.00;101531.56;5076201;28;20813;-74
2022/01/01 06:09:49;;;;;;;0.40;0.20;;;;;;;12.32;100.00;101538.63;5075999;28;20437;-74
2022/01/01 06:12:16;;;;;;;0.40;0.27;;;;;;;12.31;100.00;101545.16;5075211;28;20472;-73
2022/01/01 06:14:42;;;;;;;7.20;3.70;;;;;;;12.29;100.00;101533.75;5074834;28;20946;-73
2022/01/01 06:17:09;;;;;;;0.40;0.30;;;;;;;12.30;100.00;101538.09;5075904;28;20442;-75
2022/01/01 06:19:36;;;;;;;0.40;0.20;;;;;;;12.30;100.00;101548.94;5075446;28;20453;-75
2022/01/01 06:22:03;;;;;;;0.97;0.97;;;;;;;12.31;100.00;101553.31;5075383;28;20442;-74
2022/01/01 06:24:30;;;;;;;0.40;0.30;;;;;;;12.30;100.00;101559.81;5075002;28;20449;-74
2022/01/01 06:26:56;;;;;;;0.40;0.30;;;;;;;12.32;100.00;101557.63;5075388;28;20438;-74
2022/01/01 06:29:22;;;;;;;0.40;0.30;;;;;;;12.33;100.00;101561.16;5075430;28;20820;-74
2022/01/01 06:31:49;;;;;;;0.40;0.20;;;;;;;12.31;100.00;101561.47;5075068;28;20942;-75
2022/01/01 06:34:15;;;;;;;0.40;0.30;;;;;;;12.31;100.00;101560.66;5075119;28;20485;-73
2022/01/01 06:36:43;;;;;;;0.40;0.40;;;;;;;12.34;100.00;101570.91;5075500;28;20442;-74
2022/01/01 06:39:09;;;;;;;0.40;0.30;;;;;;;12.32;100.00;101568.50;5074916;28;20445;-72
2022/01/01 06:41:36;;;;;;;0.40;0.30;;;;;;;12.31;100.00;101568.81;5074848;28;20502;-74
2022/01/01 06:44:03;;;;;;;0.40;0.30;;;;;;;12.28;100.00;101567.47;5074812;28;20472;-72
2022/01/01 06:46:29;;;;;;;0.40;0.30;;;;;;;12.29;100.00;101571.78;5075108;28;20445;-75
2022/01/01 06:48:55;;;;;;;0.50;0.30;;;;;;;12.30;100.00;101576.13;5075267;28;20445;-74
2022/01/01 06:51:22;;;;;;;0.40;0.40;;;;;;;12.30;100.00;101575.31;5074470;28;20953;-74
2022/01/01 06:53:50;;;;;;;0.50;0.43;;;;;;;12.32;100.00;101578.56;5075062;28;20489;-74
2022/01/01 06:56:16;;;;;;;0.40;0.20;;;;;;;12.30;100.00;101586.97;5074895;28;20442;-75
2022/01/01 06:58:42;;;;;;;0.40;0.30;;;;;;;12.32;100.00;101584.81;5075152;28;20445;-74
2022/01/01 07:01:09;;;;;;;0.40;0.20;;;;;;;12.33;100.00;101586.41;5074755;28;20445;-74
2022/01/01 07:03:35;;;;;;;0.40;0.30;;;;;;;12.34;100.00;101587.22;5074917;28;20867;-75
2022/01/01 07:06:02;;;;;;;0.40;0.30;;;;;;;12.29;100.00;101595.44;5074693;28;20449;-74
2022/01/01 07:08:28;;;;;;;0.40;0.20;;;;;;;12.30;100.00;101595.13;5074931;28;20433;-74
2022/01/01 07:10:56;;;;;;;0.40;0.20;;;;;;;12.31;100.00;101599.50;5074304;28;20548;-75
2022/01/01 07:13:24;;;;;;;0.40;0.30;;;;;;;12.31;100.00;101604.13;5073306;28;20496;-74
2022/01/01 07:15:51;;;;;;;0.40;0.30;;;;;;;12.35;100.00;101602.41;5074196;28;20515;-75
2022/01/01 07:18:18;;;;;;;0.40;0.20;;;;;;;12.32;100.00;101609.25;5074688;28;20471;-74
2022/01/01 07:20:44;;;;;;;0.40;0.20;;;;;;;12.31;100.00;101610.34;5074350;28;20442;-75
2022/01/01 07:23:11;;;;;;;0.40;0.20;;;;;;;12.32;100.00;101617.41;5074515;28;20461;-75
2022/01/01 07:25:37;;;;;;;0.40;0.20;;;;;;;12.33;100.00;101619.03;5074044;28;20434;-74
2022/01/01 07:28:05;;;;;;;0.40;0.20;;;;;;;12.35;100.00;101614.13;5074544;28;20494;-75
2022/01/01 07:30:32;;;;;;;0.40;0.23;;;;;;;12.34;100.00;101623.34;5074177;28;20503;-75
2022/01/01 07:32:58;;;;;;;0.40;0.30;;;;;;;12.36;100.00;101618.44;5073620;28;20918;-72
2022/01/01 07:35:25;;;;;;;0.40;0.30;;;;;;;12.36;100.00;101629.31;5074044;28;20957;-72
2022/01/01 07:37:52;;;;;;;0.40;0.23;;;;;;;12.34;100.00;101639.66;5074030;28;20491;-72
2022/01/01 07:40:19;;;;;;;0.40;0.30;;;;;;;12.37;100.00;101636.38;5073729;28;20826;-72
2022/01/01 07:42:46;;;;;;;0.40;0.30;;;;;;;12.38;100.00;101637.97;5069702;28;20507;-73
2022/01/01 07:45:15;;;;;;;0.40;0.30;;;;;;;12.35;100.00;101641.28;5074166;28;20464;-73
2022/01/01 07:47:41;;;;;;;0.40;0.20;;;;;;;12.31;100.00;101642.97;5073671;28;20465;-73
2022/01/01 07:50:09;;;;;;;0.40;0.20;;;;;;;12.36;100.00;101644.81;5074051;28;20472;-73
2022/01/01 07:52:36;;;;;;;0.43;0.30;;;;;;;12.35;100.00;101649.44;5073608;28;20469;-73
2022/01/01 07:55:02;;;;;;;0.40;0.20;;;;;;;12.35;100.00;101651.31;5073916;28;20555;-73
2022/01/01 07:57:29;;;;;;;0.40;0.30;;;;;;;12.36;100.00;101651.06;5073678;28;20860;-73
2022/01/01 07:59:56;;;;;;;0.40;0.20;;;;;;;12.35;100.00;101660.31;5073646;28;20449;-73
2022/01/01 08:02:24;;;;;;;0.40;0.20;;;;;;;12.36;100.00;101669.28;5073819;28;20465;-73
2022/01/01 08:04:50;;;;;;;0.40;0.30;;;;;;;12.34;100.00;101668.72;5073523;28;20445;-73
2022/01/01 08:07:17;;;;;;;0.40;0.30;;;;;;;12.37;100.00;101666.25;5073527;28;20445;-73
2022/01/01 08:09:43;;;;;;;3.30;2.13;;;;;;;12.43;100.00;101667.00;5073183;28;20449;-72
2022/01/01 08:12:10;;;;;;;0.80;0.80;;;;;;;12.47;100.00;101675.41;5073827;28;20461;-72
2022/01/01 08:14:37;;;;;;;0.40;0.30;;;;;;;12.44;100.00;101667.81;5073399;28;20490;-73
2022/01/01 08:17:05;;;;;;;0.40;0.30;;;;;;;12.48;100.00;101668.88;5073614;28;20819;-73
2022/01/01 08:19:33;;;;;;;0.40;0.30;;;;;;;12.44;100.00;101667.81;5073040;28;20441;-72
2022/01/01 08:22:00;;;;;;;0.77;0.77;;;;;;;12.47;100.00;101672.69;5073192;28;20450;-72
2022/01/01 08:24:26;;;;;;;0.40;0.20;;;;;;;12.49;100.00;101673.22;5073489;28;20444;-72
2022/01/01 08:26:53;;;;;;;0.40;0.30;;;;;;;12.56;100.00;101684.56;5073009;28;20445;-72
2022/01/01 08:29:19;;;;;;;0.40;0.20;;;;;;;12.59;100.00;101682.06;5073397;28;20456;-73
2022/01/01 08:31:46;;;;;;;0.40;0.20;;;;;;;12.61;100.00;101685.31;5073034;28;20452;-72
2022/01/01 08:34:12;;;;;;;0.40;0.20;;;;;;;12.65;100.00;101690.97;5071974;28;20489;-72
2022/01/01 08:36:40;;;;;;;0.70;0.30;;;;;;;12.64;100.00;101686.66;5073306;28;20494;-73
2022/01/01 08:39:08;;;;;;;0.40;0.30;;;;;;;12.61;100.00;101677.16;5072727;28;20445;-73
2022/01/01 08:41:35;;;;;;;0.40;0.30;;;;;;;12.64;100.00;101689.38;5073534;28;20445;-73
2022/01/01 08:44:02;;;;;;;1.23;1.17;;;;;;;12.65;100.00;101688.25;5072831;28;20468;-72
2022/01/01 08:46:28;;;;;;;0.40;0.30;;;;;;;12.60;100.00;101691.84;5072647;28;20445;-72
2022/01/01 08:48:55;;;;;;;0.40;0.30;;;;;;;12.60;100.00;101691.84;5072495;28;20941;-73
2022/01/01 08:51:23;;;;;;;0.40;0.30;;;;;;;12.67;100.00;101693.44;5072150;28;20963;-72
2022/01/01 08:53:51;;;;;;;0.70;0.70;;;;;;;12.69;100.00;101696.66;5072006;28;21008;-72
2022/01/01 08:56:18;;;;;;;0.77;0.77;;;;;;;12.72;100.00;101706.97;5072508;28;20977;-73
2022/01/01 08:58:46;;;;;;;0.40;0.20;;;;;;;12.74;100.00;101704.75;5073097;28;20445;-73
2022/01/01 09:01:12;;;;;;;0.77;0.77;;;;;;;12.73;100.00;101717.53;5072900;28;20477;-73
2022/01/01 09:03:41;;;;;;;0.40;0.20;;;;;;;12.77;100.00;101715.88;5072661;28;20841;-73
2022/01/01 09:06:08;;;;;;;0.40;0.30;;;;;;;12.75;100.00;101718.09;5072883;28;20445;-74
2022/01/01 09:08:35;;;;;;;0.40;0.20;;;;;;;12.78;100.00;101717.47;5073074;28;20445;-73
2022/01/01 09:11:04;;;;;;;0.40;0.20;;;;;;;12.80;100.00;101720.75;5072720;28;20457;-73
2022/01/01 09:13:31;;;;;;;0.40;0.20;;;;;;;12.76;100.00;101736.00;5072475;28;20534;-73
2022/01/01 09:15:58;;;;;;;0.40;0.30;;;;;;;12.81;100.00;101744.09;5072804;28;20441;-73
2022/01/01 09:18:24;;;;;;;0.83;0.83;;;;;;;12.80;100.00;101737.06;5072554;28;20487;-73
2022/01/01 09:20:51;;;;;;;0.40;0.30;;;;;;;12.79;100.00;101742.75;5072538;28;20449;-73
2022/01/01 09:23:18;;;;;;;0.40;0.30;;;;;;;12.83;100.00;101752.78;5073729;28;20974;-73
2022/01/01 09:25:44;;;;;;;0.40;0.30;;;;;;;12.83;100.00;101746.53;5072809;28;20456;-74
2022/01/01 09:28:12;;;;;;;0.40;0.20;;;;;;;12.83;100.00;101747.34;5072313;28;20856;-74
2022/01/01 09:30:38;;;;;;;0.40;0.30;;;;;;;12.85;100.00;101756.03;5072364;28;20825;-72
2022/01/01 09:33:05;;;;;;;0.40;0.30;;;;;;;12.83;100.00;101760.94;5072335;28;20830;-72
2022/01/01 09:35:31;;;;;;;0.40;0.20;;;;;;;12.85;100.00;101769.63;5052795;28;20473;-72
2022/01/01 09:37:58;;;;;;;0.40;0.30;;;;;;;12.89;100.00;101767.16;5052694;28;20450;-73
2022/01/01 09:40:25;;;;;;;0.40;0.30;;;;;;;12.90;100.00;101779.66;5071630;28;20442;-72
2022/01/01 09:42:53;;;;;;;0.40;0.30;;;;;;;12.95;100.00;101771.44;5071738;28;20458;-73
2022/01/01 09:45:21;;;;;;;1.07;1.07;;;;;;;12.95;100.00;101776.06;5072944;28;20445;-73
2022/01/01 09:47:49;;;;;;;1.33;1.03;;;;;;;12.91;100.00;101778.53;5072098;28;20446;-72
2022/01/01 09:50:15;;;;;;;0.40;0.20;;;;;;;12.95;100.00;101779.59;5072402;28;20934;-72
2022/01/01 09:52:42;;;;;;;0.40;0.30;;;;;;;12.93;100.00;101781.81;5072335;28;20510;-73
2022/01/01 09:55:09;;;;;;;0.40;0.30;;;;;;;12.96;100.00;101785.84;5072539;28;20477;-72
2022/01/01 09:57:36;;;;;;;0.40;0.30;;;;;;;12.96;100.00;101788.56;5071971;28;20481;-73
2022/01/01 10:00:03;;;;;;;0.40;0.20;;;;;;;12.95;100.00;101795.09;5072886;28;20450;-73
2022/01/01 10:02:32;;;;;;;0.40;0.23;;;;;;;12.91;100.00;101789.41;5075624;28;20476;-73
2022/01/01 10:05:04;;;;;;;0.40;0.20;;;;;;;12.92;100.00;101782.06;5076070;28;20441;-73
2022/01/01 10:07:30;;;;;;;0.40;0.30;;;;;;;12.90;100.00;101779.66;5075794;28;20445;-73
2022/01/01 10:09:57;;;;;;;0.40;0.30;;;;;;;12.89;100.00;101788.91;5075567;28;20460;-73
2022/01/01 10:12:38;;;;;;;0.40;0.20;;;;;;;12.94;100.00;101790.78;5075868;28;20457;-73
2022/01/01 10:15:07;;;;;;;0.40;0.20;;;;;;;12.90;100.00;101787.81;5075670;28;20495;-73
2022/01/01 10:17:35;;;;;;;0.40;0.30;;;;;;;12.87;100.00;101794.63;5076210;28;20475;-73
2022/01/01 10:20:02;;;;;;;0.40;0.20;;;;;;;12.88;100.00;101798.97;5075462;28;20453;-73
2022/01/01 10:22:29;;;;;;;1.07;0.97;;;;;;;12.92;100.00;101803.81;5075163;28;20996;-73
2022/01/01 10:27:54;;;;;;;0.40;0.30;;;;;;;12.97;100.00;101801.06;5075278;28;20451;-72
2022/01/01 10:30:22;;;;;;;0.40;0.30;;;;;;;12.98;100.00;101808.13;5075699;28;20441;-73
2022/01/01 10:33:08;;;;;;;0.40;0.23;;;;;;;12.99;100.00;101804.31;5074869;28;20993;-72
2022/01/01 10:35:37;;;;;;;0.40;0.30;;;;;;;13.01;100.00;101802.09;5074982;28;20474;-73
2022/01/01 10:38:05;;;;;;;0.50;0.50;;;;;;;13.05;100.00;101803.16;5075526;28;20444;-73
2022/01/01 10:40:32;;;;;;;0.40;0.30;;;;;;;13.06;100.00;101805.59;5075267;28;20484;-76
2022/01/01 10:42:58;;;;;;;0.40;0.30;;;;;;;13.07;100.00;101804.50;5074808;28;20484;-73
2022/01/01 10:45:34;;;;;;;0.40;0.30;;;;;;;13.13;100.00;101806.06;5065567;28;20835;-72
2022/01/01 10:48:14;;;;;;;0.40;0.20;;;;;;;13.17;100.00;101817.19;5074660;28;20981;-73
2022/01/01 10:50:42;;;;;;;0.40;0.30;;;;;;;13.16;100.00;101809.31;5075076;28;20445;-71
2022/01/01 10:53:12;;;;;;;0.40;0.30;;;;;;;13.17;100.00;101811.75;5069596;28;20486;-72
2022/01/01 10:55:44;;;;;;;0.40;0.30;;;;;;;13.21;100.00;101807.34;5072727;28;20488;-72
2022/01/01 10:58:16;;;;;;;0.40;0.30;;;;;;;13.24;100.00;101812.25;5074474;28;20445;-72
2022/01/01 11:00:43;;;;;;;0.40;0.30;;;;;;;13.24;100.00;101808.72;5074429;28;20468;-72
2022/01/01 11:03:16;;;;;;;0.40;0.30;;;;;;;13.24;100.00;101798.66;5074423;28;20474;-72
2022/01/01 11:05:44;;;;;;;0.40;0.30;;;;;;;13.25;100.00;101811.16;5074169;28;20437;-72
2022/01/01 11:08:12;;;;;;;0.97;0.97;;;;;;;13.19;100.00;101803.28;5074787;28;20445;-72
2022/01/01 11:10:40;;;;;;;0.40;0.30;;;;;;;13.23;100.00;101809.81;5074435;28;20452;-71
2022/01/01 11:13:08;;;;;;;0.40;0.20;;;;;;;13.24;100.00;101795.94;5074707;28;20487;-72
2022/01/01 11:15:35;;;;;;;0.40;0.20;;;;;;;13.18;100.00;101796.22;5074413;28;20484;-71
2022/01/01 11:18:02;;;;;;;0.40;0.20;;;;;;;13.18;100.00;101797.03;5074084;28;20958;-72
2022/01/01 11:20:33;;;;;;;1.13;1.13;;;;;;;13.24;100.00;101806.00;5073996;28;20446;-72